Terminal Aerodrome Forecast
Issued by NWS Jackson, KY

Home | Current Version | Previous Version | Text Only | Print | Product List | Glossary On
Versions: 1 2 3 4 5 6 7 8 9 10 11 12 13 14 15 16 17 18 19 20 21 22 23 24 25 26 27 28 29 30 31
000
FTUS43 KJKL 031955 AAB
TAFJKL
TAF AMD
KJKL 031955Z 0320/0418 00000KT P6SM SCT025
     FM032200 VRB04KT P6SM VCTS BKN025CB
     FM032300 00000KT P6SM BKN040
     FM040400 00000KT 5SM BR BKN035
     FM041200 00000KT 2SM BR SCT006 BKN035
     FM041400 18003KT P6SM BKN040=

USA.gov is the U.S. government's official web portal to all federal, state and local government web resources and services.